createdAt,value
2022-10-05T00:02:21.900Z,59428.66
2022-10-05T00:04:50.184Z,59496.97
2022-10-05T00:07:17.593Z,59494.91
2022-10-05T00:09:45.570Z,59422.44
2022-10-05T00:12:20.225Z,59455.56
2022-10-05T00:14:48.036Z,59443.16
2022-10-05T00:17:23.320Z,59604.66
2022-10-05T00:19:52.267Z,59455.56
2022-10-05T00:22:30.353Z,59675.06
2022-10-05T00:24:59.546Z,59453.50
2022-10-05T00:27:27.576Z,59416.22
2022-10-05T00:29:58.705Z,59468.00
2022-10-05T00:32:25.146Z,59795.16
2022-10-05T00:34:51.843Z,59480.41
2022-10-05T00:37:18.488Z,59499.06
2022-10-05T00:39:45.433Z,59302.34
2022-10-05T00:42:23.306Z,59465.91
2022-10-05T00:45:16.673Z,59407.94
2022-10-05T00:47:55.215Z,59463.84
2022-10-05T00:50:46.577Z,59474.19
2022-10-05T00:53:42.648Z,59410.00
2022-10-05T00:56:46.189Z,59463.84
2022-10-05T00:59:40.826Z,59463.84
2022-10-05T01:02:19.948Z,59476.28
2022-10-05T01:04:54.628Z,59480.41
2022-10-05T01:07:42.547Z,59528.03
2022-10-05T01:10:43.189Z,59588.09
2022-10-05T01:13:17.148Z,59567.38
2022-10-05T01:15:43.580Z,59534.25
2022-10-05T01:18:18.848Z,59536.31
2022-10-05T01:20:54.262Z,59534.25
2022-10-05T01:23:52.078Z,59583.94
2022-10-05T01:26:27.282Z,59579.81
2022-10-05T01:29:18.075Z,59494.91
2022-10-05T01:31:50.025Z,59546.66
2022-10-05T01:34:42.760Z,59563.25
2022-10-05T01:37:26.042Z,59525.97
2022-10-05T01:40:01.768Z,59505.25
2022-10-05T01:42:51.033Z,59472.13
2022-10-05T01:45:29.451Z,59505.25
2022-10-05T01:48:09.743Z,59430.72
2022-10-05T01:50:57.998Z,59503.19
2022-10-05T01:53:33.272Z,59492.84
2022-10-05T01:56:10.875Z,59465.91
2022-10-05T01:59:00.692Z,59472.13
2022-10-05T02:01:35.844Z,59451.44
2022-10-05T02:04:56.910Z,59484.56
2022-10-05T02:07:21.325Z,59393.44
2022-10-05T02:09:55.275Z,59463.84
2022-10-05T02:12:25.121Z,59503.19
2022-10-05T02:14:56.717Z,59530.09
2022-10-05T02:17:33.551Z,59548.75
2022-10-05T02:20:03.464Z,59571.53
2022-10-05T02:22:34.852Z,59559.09
2022-10-05T02:25:04.602Z,59600.50
2022-10-05T02:27:36.932Z,59484.56
2022-10-05T02:30:06.402Z,59550.81
2022-10-05T02:32:38.425Z,59573.59
2022-10-05T02:35:13.550Z,59399.66
2022-10-05T02:38:01.259Z,59567.38
2022-10-05T02:40:36.835Z,59542.53
2022-10-05T02:43:21.460Z,59548.75
2022-10-05T02:46:03.173Z,59542.53
2022-10-05T02:49:03.217Z,59590.16
2022-10-05T02:51:54.229Z,59542.53
2022-10-05T02:54:48.424Z,59534.25
2022-10-05T02:57:58.417Z,59496.97
2022-10-05T03:00:25.384Z,59521.81
2022-10-05T03:03:08.456Z,59517.69
2022-10-05T03:05:43.390Z,59695.75
2022-10-05T03:08:17.221Z,59511.47
2022-10-05T03:10:48.469Z,59490.78
2022-10-05T03:13:26.241Z,59563.25
2022-10-05T03:16:04.763Z,59581.88
2022-10-05T03:18:49.929Z,59559.09
2022-10-05T03:21:19.407Z,59583.94
2022-10-05T03:24:04.630Z,59525.97
2022-10-05T03:26:49.582Z,59496.97
2022-10-05T03:29:27.395Z,59515.63
2022-10-05T03:32:05.955Z,59929.75
2022-10-05T03:34:57.062Z,59834.50
2022-10-05T03:37:31.054Z,59525.97
2022-10-05T03:40:04.778Z,59525.97
2022-10-05T03:43:21.955Z,59548.75
2022-10-05T03:45:52.409Z,59534.25
2022-10-05T03:48:24.722Z,59542.53
2022-10-05T03:51:15.598Z,59542.53
2022-10-05T03:53:46.007Z,59517.69
2022-10-05T03:56:39.733Z,59561.16
2022-10-05T03:59:18.355Z,59569.44
2022-10-05T04:02:06.216Z,59610.88
2022-10-05T04:04:37.658Z,59575.66
2022-10-05T04:07:05.244Z,59461.78
2022-10-05T04:09:41.080Z,59579.81
2022-10-05T04:12:24.342Z,59575.66
2022-10-05T04:14:53.920Z,59557.03
2022-10-05T04:17:42.085Z,59608.78
2022-10-05T04:20:22.743Z,59629.50
2022-10-05T04:22:59.595Z,59615.00
2022-10-05T04:25:30.809Z,59463.84
2022-10-05T04:28:05.925Z,59550.81
2022-10-05T04:30:34.811Z,59646.06
2022-10-05T04:33:01.437Z,59648.13
2022-10-05T04:35:46.484Z,59627.44
2022-10-05T04:38:58.224Z,59617.06
2022-10-05T04:42:09.011Z,59650.19
2022-10-05T04:45:29.477Z,59681.25
2022-10-05T04:48:09.290Z,59648.13
2022-10-05T04:50:48.120Z,59619.16
2022-10-05T04:53:46.518Z,59668.84
2022-10-05T04:56:32.599Z,59621.22
2022-10-05T04:59:01.946Z,59699.91
2022-10-05T05:02:06.673Z,59685.41
2022-10-05T05:04:57.215Z,59747.53
2022-10-05T05:08:06.137Z,59697.81
2022-10-05T05:10:46.125Z,59670.91
2022-10-05T05:13:33.258Z,59712.31
2022-10-05T05:16:21.584Z,59679.19
2022-10-05T05:19:25.553Z,59679.19
2022-10-05T05:21:57.112Z,59687.47
2022-10-05T05:24:48.549Z,59660.56
2022-10-05T05:27:36.824Z,59720.59
2022-10-05T05:30:37.253Z,59683.34
2022-10-05T05:33:41.550Z,59704.03
2022-10-05T05:36:12.552Z,59672.97
2022-10-05T05:38:40.261Z,59778.59
2022-10-05T05:41:30.701Z,59662.63
2022-10-05T05:44:12.130Z,59762.03
2022-10-05T05:47:04.806Z,59764.09
2022-10-05T05:49:54.647Z,59784.78
2022-10-05T05:52:33.484Z,59718.53
2022-10-05T05:55:17.365Z,59751.66
2022-10-05T05:57:51.139Z,59749.59
2022-10-05T06:00:24.122Z,59766.16
2022-10-05T06:02:56.764Z,59803.44
2022-10-05T06:05:46.853Z,59699.91
2022-10-05T06:08:32.410Z,59921.47
2022-10-05T06:11:02.275Z,59646.06
2022-10-05T06:13:37.569Z,59778.59
2022-10-05T06:16:13.083Z,59844.84
2022-10-05T06:18:41.911Z,59791.00
2022-10-05T06:21:25.912Z,59822.06
2022-10-05T06:24:15.158Z,59791.00
2022-10-05T06:27:17.438Z,60099.56
2022-10-05T06:29:58.305Z,59861.41
2022-10-05T06:32:46.603Z,59917.31
2022-10-05T06:35:53.153Z,59938.03
2022-10-05T06:38:37.350Z,60004.31
2022-10-05T06:41:15.867Z,59890.41
2022-10-05T06:43:56.378Z,59892.47
2022-10-05T06:46:34.680Z,59902.84
2022-10-05T06:49:37.703Z,60010.50
2022-10-05T06:52:15.572Z,60016.72
2022-10-05T06:54:50.649Z,59923.53
2022-10-05T06:57:38.934Z,59913.19
2022-10-05T07:00:13.410Z,59958.75
2022-10-05T07:02:45.299Z,59983.59
2022-10-05T07:05:23.680Z,59979.44
2022-10-05T07:08:04.744Z,59944.25
2022-10-05T07:10:32.416Z,59977.38
2022-10-05T07:13:02.804Z,60004.31
2022-10-05T07:15:50.393Z,59985.66
2022-10-05T07:18:44.134Z,60006.38
2022-10-05T07:21:13.380Z,59952.53
2022-10-05T07:23:46.433Z,60054.00
2022-10-05T07:26:21.949Z,60014.66
2022-10-05T07:29:07.151Z,60271.44
2022-10-05T07:31:38.206Z,60043.66
2022-10-05T07:34:07.760Z,59991.88
2022-10-05T07:37:00.420Z,59909.03
2022-10-05T07:39:59.499Z,59964.97
2022-10-05T07:43:08.956Z,59998.09
2022-10-05T07:45:58.044Z,60058.16
2022-10-05T07:49:10.635Z,60182.41
2022-10-05T07:51:41.206Z,60080.91
2022-10-05T07:54:26.486Z,60151.34
2022-10-05T07:56:55.961Z,60078.84
2022-10-05T07:59:38.769Z,60132.69
2022-10-05T08:02:17.572Z,60134.75
2022-10-05T08:04:51.355Z,60176.19
2022-10-05T08:07:18.167Z,60169.97
2022-10-05T08:10:03.318Z,60234.16
2022-10-05T08:12:50.922Z,60383.28
2022-10-05T08:15:22.652Z,60192.75
2022-10-05T08:18:02.788Z,60167.91
2022-10-05T08:20:38.902Z,60248.66
2022-10-05T08:23:11.297Z,60314.94
2022-10-05T08:25:42.774Z,60271.44
2022-10-05T08:28:39.910Z,60302.50
2022-10-05T08:31:19.307Z,60265.22
2022-10-05T08:33:56.789Z,60366.72
2022-10-05T08:36:52.913Z,60385.34
2022-10-05T08:39:21.799Z,60412.28
2022-10-05T08:42:03.591Z,60329.44
2022-10-05T08:44:29.911Z,60362.56
2022-10-05T08:47:11.227Z,60399.84
2022-10-05T08:49:52.876Z,60401.91
2022-10-05T08:52:56.752Z,60424.69
2022-10-05T08:55:36.963Z,60474.41
2022-10-05T08:58:26.567Z,60526.19
2022-10-05T09:00:58.069Z,60540.69
2022-10-05T09:03:56.349Z,60762.28
2022-10-05T09:06:50.970Z,60584.19
2022-10-05T09:09:37.566Z,60561.41
2022-10-05T09:12:16.686Z,60718.81
2022-10-05T09:15:01.564Z,60590.38
2022-10-05T09:18:00.089Z,60642.16
2022-10-05T09:20:30.839Z,60551.03
2022-10-05T09:23:24.453Z,60986.00
2022-10-05T09:25:58.696Z,60785.09
2022-10-05T09:28:37.587Z,60745.72
2022-10-05T09:31:29.328Z,60768.50
2022-10-05T09:34:20.032Z,60809.94
2022-10-05T09:37:14.106Z,60843.06
2022-10-05T09:40:01.177Z,60965.28
2022-10-05T09:42:37.085Z,60843.06
2022-10-05T09:45:25.250Z,60872.06
2022-10-05T09:48:13.252Z,60957.00
2022-10-05T09:51:12.067Z,61097.84
2022-10-05T09:54:01.380Z,61093.72
2022-10-05T09:56:41.699Z,61209.72
2022-10-05T09:59:08.097Z,61172.41
2022-10-05T10:01:37.425Z,61164.13
2022-10-05T10:04:12.324Z,61079.22
2022-10-05T10:07:02.179Z,61170.34
2022-10-05T10:09:47.297Z,61224.22
2022-10-05T10:12:36.189Z,61228.34
2022-10-05T10:15:34.902Z,61319.50
2022-10-05T10:18:15.357Z,61300.84
2022-10-05T10:21:06.890Z,61273.94
2022-10-05T10:23:42.368Z,61286.34
2022-10-05T10:26:45.326Z,61228.34
2022-10-05T10:29:23.863Z,61309.13
2022-10-05T10:32:27.811Z,61338.13
2022-10-05T10:35:21.488Z,61290.50
2022-10-05T10:38:00.460Z,61431.34
2022-10-05T10:40:47.100Z,61373.34
2022-10-05T10:43:35.838Z,61425.16
2022-10-05T10:46:13.652Z,61634.38
2022-10-05T10:48:53.991Z,61711.03
2022-10-05T10:51:26.416Z,61501.78
2022-10-05T10:54:09.659Z,61501.78
2022-10-05T10:57:04.013Z,61344.34
2022-10-05T10:59:48.651Z,61269.78
2022-10-05T11:02:39.969Z,61476.94
2022-10-05T11:05:23.422Z,61454.16
2022-10-05T11:07:56.967Z,61619.88
2022-10-05T11:10:29.307Z,61537.00
2022-10-05T11:13:13.957Z,61539.09
2022-10-05T11:16:02.733Z,61769.03
2022-10-05T11:18:32.460Z,61700.69
2022-10-05T11:21:25.607Z,61912.00
2022-10-05T11:24:26.092Z,62135.75
2022-10-05T11:27:14.526Z,62096.38
2022-10-05T11:30:03.700Z,62463.13
2022-10-05T11:33:04.272Z,61953.44
2022-10-05T11:35:52.083Z,62028.03
2022-10-05T11:38:56.032Z,62052.88
2022-10-05T11:41:56.762Z,62034.22
2022-10-05T11:44:42.870Z,62139.91
2022-10-05T11:47:30.365Z,62237.28
2022-10-05T11:50:10.329Z,62139.91
2022-10-05T11:53:06.028Z,62490.06
2022-10-05T11:55:59.858Z,62131.63
2022-10-05T11:58:29.527Z,62112.97
2022-10-05T12:01:18.264Z,62616.47
2022-10-05T12:03:50.865Z,62485.94
2022-10-05T12:06:22.305Z,62490.06
2022-10-05T12:09:04.684Z,62280.78
2022-10-05T12:11:43.573Z,62253.84
2022-10-05T12:14:15.975Z,62543.94
2022-10-05T12:16:51.119Z,62595.75
2022-10-05T12:19:31.784Z,62374.03
2022-10-05T12:22:09.827Z,62295.31
2022-10-05T12:24:36.109Z,62461.06
2022-10-05T12:27:09.524Z,62479.72
2022-10-05T12:29:48.715Z,62668.28
2022-10-05T12:32:22.498Z,62773.97
2022-10-05T12:35:04.444Z,63248.53
2022-10-05T12:37:53.611Z,62958.41
2022-10-05T12:40:32.219Z,62780.19
2022-10-05T12:43:01.511Z,62730.44
2022-10-05T12:45:46.249Z,62906.59
2022-10-05T12:48:36.128Z,62680.72
2022-10-05T12:51:24.362Z,62929.38
2022-10-05T12:54:21.767Z,63020.56
2022-10-05T12:57:01.803Z,62974.97
2022-10-05T12:59:36.106Z,62854.78
2022-10-05T13:02:24.244Z,62995.72
2022-10-05T13:04:54.902Z,62952.19
2022-10-05T13:07:46.422Z,62877.59
2022-10-05T13:10:22.556Z,62848.56
2022-10-05T13:13:11.882Z,63055.81
2022-10-05T13:15:52.167Z,63107.63
2022-10-05T13:18:42.011Z,62885.88
2022-10-05T13:21:16.860Z,62993.63
2022-10-05T13:23:49.491Z,62910.75
2022-10-05T13:26:29.590Z,63010.22
2022-10-05T13:29:19.212Z,63242.31
2022-10-05T13:31:57.451Z,63466.16
2022-10-05T13:34:37.650Z,63337.66
2022-10-05T13:37:22.907Z,63476.53
2022-10-05T13:39:57.952Z,63561.50
2022-10-05T13:42:48.194Z,63395.69
2022-10-05T13:45:25.750Z,63399.84
2022-10-05T13:48:25.378Z,63725.25
2022-10-05T13:51:03.836Z,63520.06
2022-10-05T13:53:49.868Z,63372.91
2022-10-05T13:56:32.680Z,63553.22
2022-10-05T13:58:59.502Z,63482.75
2022-10-05T14:01:55.270Z,63522.13
2022-10-05T14:04:27.228Z,63806.09
2022-10-05T14:06:53.778Z,63629.91
2022-10-05T14:09:20.264Z,63768.78
2022-10-05T14:12:05.460Z,63791.59
2022-10-05T14:14:33.801Z,63847.56
2022-10-05T14:17:05.352Z,63785.38
2022-10-05T14:19:43.592Z,63675.50
2022-10-05T14:22:24.139Z,64133.59
2022-10-05T14:25:07.586Z,63957.41
2022-10-05T14:27:36.783Z,63897.28
2022-10-05T14:30:12.322Z,63986.44
2022-10-05T14:33:17.059Z,64081.78
2022-10-05T14:35:49.153Z,63648.56
2022-10-05T14:38:52.155Z,63880.72
2022-10-05T14:41:20.408Z,63955.34
2022-10-05T14:44:06.933Z,63953.25
2022-10-05T14:46:36.369Z,64117.03
2022-10-05T14:49:24.162Z,64297.38
2022-10-05T14:51:51.547Z,64013.38
2022-10-05T14:54:43.720Z,63860.00
2022-10-05T14:57:40.576Z,63621.63
2022-10-05T15:00:16.670Z,63478.59
2022-10-05T15:03:10.034Z,63169.78
2022-10-05T15:05:55.160Z,62834.06
2022-10-05T15:08:36.896Z,63260.97
2022-10-05T15:11:07.565Z,62923.19
2022-10-05T15:13:42.395Z,63225.75
2022-10-05T15:16:25.506Z,63275.50
2022-10-05T15:18:58.633Z,63333.53
2022-10-05T15:21:39.354Z,63209.16
2022-10-05T15:24:13.106Z,63062.03
2022-10-05T15:26:50.977Z,62960.47
2022-10-05T15:29:41.839Z,62939.75
2022-10-05T15:32:17.476Z,62993.63
2022-10-05T15:35:20.451Z,62902.44
2022-10-05T15:38:26.898Z,62715.94
2022-10-05T15:41:12.554Z,62693.16
2022-10-05T15:43:58.441Z,62674.50
2022-10-05T15:46:41.620Z,62643.41
2022-10-05T15:49:10.505Z,62649.63
2022-10-05T15:51:47.688Z,62649.63
2022-10-05T15:54:55.301Z,62630.97
2022-10-05T15:57:36.759Z,62481.78
2022-10-05T16:00:12.968Z,62570.88
2022-10-05T16:02:54.986Z,62467.28
2022-10-05T16:06:06.313Z,62504.59
2022-10-05T16:08:50.841Z,62500.44
2022-10-05T16:11:26.942Z,62506.66
2022-10-05T16:14:12.648Z,62396.84
2022-10-05T16:17:07.197Z,62384.41
2022-10-05T16:19:46.318Z,62251.78
2022-10-05T16:22:34.562Z,62229.00
2022-10-05T16:25:23.960Z,62166.84
2022-10-05T16:28:06.122Z,62197.91
2022-10-05T16:30:50.580Z,62450.72
2022-10-05T16:33:38.195Z,62168.91
2022-10-05T16:36:11.206Z,62139.91
2022-10-05T16:39:01.834Z,62131.63
2022-10-05T16:41:49.056Z,62019.72
2022-10-05T16:44:27.637Z,62003.16
2022-10-05T16:47:00.083Z,62332.59
2022-10-05T16:49:38.752Z,61928.56
2022-10-05T16:52:06.962Z,61812.53
2022-10-05T16:54:48.094Z,61816.69
2022-10-05T16:57:25.476Z,61773.19
2022-10-05T17:00:15.934Z,61592.94
2022-10-05T17:02:56.899Z,61427.22
2022-10-05T17:05:55.683Z,61389.94
2022-10-05T17:08:31.620Z,61367.13
2022-10-05T17:11:39.916Z,61369.22
2022-10-05T17:14:24.663Z,61346.44
2022-10-05T17:16:57.528Z,61317.44
2022-10-05T17:19:53.111Z,61302.94
2022-10-05T17:22:59.045Z,61298.78
2022-10-05T17:25:36.172Z,61276.00
2022-10-05T17:28:36.231Z,61302.94
2022-10-05T17:31:18.127Z,61528.72
2022-10-05T17:33:59.950Z,61358.84
2022-10-05T17:36:44.838Z,61269.78
2022-10-05T17:39:53.444Z,61375.44
2022-10-05T17:42:25.951Z,61334.00
2022-10-05T17:44:59.663Z,61300.84
2022-10-05T17:48:03.677Z,61354.72
2022-10-05T17:51:15.034Z,61350.56
2022-10-05T17:54:03.014Z,61385.78
2022-10-05T17:56:31.013Z,61346.44
2022-10-05T17:59:00.446Z,61414.78
2022-10-05T18:01:35.339Z,61340.22
2022-10-05T18:04:11.056Z,61323.63
2022-10-05T18:07:04.896Z,61319.50
2022-10-05T18:09:36.050Z,61363.00
2022-10-05T18:12:08.427Z,61365.06
2022-10-05T18:15:07.025Z,61309.13
2022-10-05T18:17:45.406Z,61242.84
2022-10-05T18:20:23.857Z,61319.50
2022-10-05T18:22:53.242Z,61472.78
2022-10-05T18:25:27.257Z,61240.78
2022-10-05T18:28:00.764Z,61325.72
2022-10-05T18:30:31.003Z,61555.66
2022-10-05T18:32:57.392Z,61298.78
2022-10-05T18:35:48.221Z,61309.13
2022-10-05T18:38:42.222Z,61284.28
2022-10-05T18:41:12.727Z,61340.22
2022-10-05T18:43:42.475Z,61331.94
2022-10-05T18:46:30.493Z,61302.94
2022-10-05T18:49:24.992Z,61327.78
2022-10-05T18:52:03.786Z,61348.50
2022-10-05T18:55:18.233Z,61354.72
2022-10-05T18:58:06.102Z,61389.94
2022-10-05T19:00:41.465Z,61383.72
2022-10-05T19:03:23.273Z,61373.34
2022-10-05T19:05:55.571Z,61416.84
2022-10-05T19:08:45.844Z,61394.06
2022-10-05T19:11:31.053Z,61447.94
2022-10-05T19:14:25.451Z,61439.66
2022-10-05T19:17:13.713Z,61443.78
2022-10-05T19:20:00.325Z,61398.22
2022-10-05T19:22:59.001Z,61402.34
2022-10-05T19:25:40.622Z,61653.03
2022-10-05T19:28:25.894Z,61452.06
2022-10-05T19:30:58.420Z,61429.28
2022-10-05T19:33:31.387Z,61402.34
2022-10-05T19:36:00.804Z,61406.50
2022-10-05T19:38:35.154Z,61385.78
2022-10-05T19:41:20.817Z,61400.28
2022-10-05T19:44:06.462Z,61447.94
2022-10-05T19:46:52.699Z,61423.06
2022-10-05T19:49:36.440Z,61439.66
2022-10-05T19:52:04.418Z,61406.50
2022-10-05T19:54:31.518Z,61427.22
2022-10-05T19:57:01.939Z,61456.22
2022-10-05T19:59:32.159Z,61433.44
2022-10-05T20:01:59.072Z,61553.59
2022-10-05T20:04:35.941Z,61437.56
2022-10-05T20:07:02.600Z,61464.50
2022-10-05T20:09:29.699Z,61636.44
2022-10-05T20:11:56.743Z,61452.06
2022-10-05T20:14:31.281Z,61418.94
2022-10-05T20:17:34.301Z,61499.72
2022-10-05T20:20:47.108Z,61464.50
2022-10-05T20:23:24.317Z,61541.16
2022-10-05T20:26:10.743Z,61433.44
2022-10-05T20:28:37.261Z,61539.09
2022-10-05T20:31:06.482Z,61369.22
2022-10-05T20:33:34.304Z,61365.06
2022-10-05T20:36:03.379Z,61402.34
2022-10-05T20:38:31.507Z,61356.78
2022-10-05T20:40:58.261Z,61373.34
2022-10-05T20:43:24.692Z,61561.88
2022-10-05T20:45:52.194Z,61394.06
2022-10-05T20:48:19.431Z,61389.94
2022-10-05T20:50:47.254Z,61367.13
2022-10-05T20:53:13.831Z,61688.25
2022-10-05T20:55:40.465Z,61503.88
2022-10-05T20:58:08.867Z,61334.00
2022-10-05T21:00:54.326Z,61398.22
2022-10-05T21:03:20.987Z,61744.19
2022-10-05T21:05:47.418Z,61423.06
2022-10-05T21:08:13.964Z,61369.22
2022-10-05T21:10:40.396Z,61412.72
2022-10-05T21:13:06.824Z,61520.44
2022-10-05T21:15:33.241Z,61406.50
2022-10-05T21:17:59.646Z,61452.06
2022-10-05T21:20:26.056Z,61472.78
2022-10-05T21:22:52.453Z,61679.97
2022-10-05T21:25:18.925Z,61406.50
2022-10-05T21:27:46.291Z,61491.44
2022-10-05T21:30:12.786Z,61406.50
2022-10-05T21:32:43.999Z,61418.94
2022-10-05T21:35:10.924Z,61423.06
2022-10-05T21:37:37.339Z,61450.00
2022-10-05T21:40:04.035Z,61427.22
2022-10-05T21:42:30.464Z,61416.84
2022-10-05T21:44:56.838Z,61385.78
2022-10-05T21:47:23.262Z,61261.50
2022-10-05T21:49:49.688Z,61253.22
2022-10-05T21:52:16.068Z,61290.50
2022-10-05T21:54:42.553Z,61692.38
2022-10-05T21:57:11.221Z,61153.78
2022-10-05T21:59:37.613Z,61079.22
2022-10-05T22:02:04.348Z,61066.78
2022-10-05T22:04:30.993Z,61023.28
2022-10-05T22:06:57.511Z,61261.50
2022-10-05T22:09:24.094Z,60865.84
2022-10-05T22:11:50.525Z,60944.56
2022-10-05T22:14:17.029Z,60807.88
2022-10-05T22:16:43.988Z,60948.72
2022-10-05T22:19:16.323Z,60917.63
2022-10-05T22:21:42.756Z,60907.28
2022-10-05T22:24:11.324Z,60841.00
2022-10-05T22:26:37.954Z,60783.00
2022-10-05T22:29:04.399Z,60826.50
2022-10-05T22:31:30.978Z,60743.66
2022-10-05T22:33:57.409Z,60853.44
2022-10-05T22:36:24.005Z,60760.22
2022-10-05T22:38:50.507Z,60758.16
2022-10-05T22:41:18.298Z,60764.38
2022-10-05T22:43:44.891Z,60553.09
2022-10-05T22:46:12.275Z,60393.63
2022-10-05T22:48:39.259Z,60062.28
2022-10-05T22:51:06.229Z,60004.31
2022-10-05T22:53:33.708Z,60099.56
2022-10-05T22:56:18.406Z,59987.72
2022-10-05T22:58:45.444Z,59960.81
2022-10-05T23:01:15.161Z,59996.03
2022-10-05T23:03:42.532Z,59960.81
2022-10-05T23:06:11.567Z,59935.97
2022-10-05T23:08:38.610Z,59762.03
2022-10-05T23:11:25.943Z,59855.19
2022-10-05T23:13:53.858Z,59836.56
2022-10-05T23:16:21.745Z,59795.16
2022-10-05T23:18:50.195Z,59807.56
2022-10-05T23:21:17.491Z,59764.09
2022-10-05T23:23:48.851Z,59757.88
2022-10-05T23:26:16.042Z,59776.50
2022-10-05T23:28:46.596Z,59644.00
2022-10-05T23:31:15.410Z,59733.03
2022-10-05T23:33:41.881Z,59857.28
2022-10-05T23:36:14.555Z,59689.53
2022-10-05T23:38:41.004Z,59635.72
2022-10-05T23:41:08.662Z,59662.63
2022-10-05T23:43:35.647Z,59724.75
2022-10-05T23:46:03.558Z,59780.66
2022-10-05T23:48:31.386Z,59670.91
2022-10-05T23:50:58.618Z,59726.81
2022-10-05T23:53:25.920Z,59778.59
2022-10-05T23:55:54.509Z,59735.09
2022-10-05T23:58:21.844Z,59938.03
